Time;durP1;ratioP1;P1;durP2;ratioP2;P2;SDS_P1;SDS_P2;PMS_P1;PMS_P2;Temp;Humidity;BMP_temperature;BMP_pressure;BME280_temperature;BME280_humidity;BME280_pressure;Samples;Min_cycle;Max_cycle;Signal;HPM_P1;HPM_P2
2022/02/17 00:00:06;;;;;;;3.75;2.12;;;;;;;8.66;78.15;98179.30;1620401;87;25400;-79
2022/02/17 00:02:36;;;;;;;5.15;2.20;;;;;;;8.66;78.22;98166.75;1621083;87;26663;-79
2022/02/17 00:05:03;;;;;;;5.35;3.05;;;;;;;8.64;78.33;98148.05;1594645;89;26603;-79
2022/02/17 00:07:29;;;;;;;6.15;2.50;;;;;;;8.64;78.47;98132.81;1619778;87;25941;-78
2022/02/17 00:09:55;;;;;;;3.02;2.40;;;;;;;8.64;78.41;98116.02;1623005;87;25987;-79
2022/02/17 00:12:21;;;;;;;6.55;3.02;;;;;;;8.62;78.51;98109.56;1620539;87;25991;-78
2022/02/17 00:14:48;;;;;;;3.67;2.72;;;;;;;8.61;78.61;98099.13;1624609;87;27458;-79
2022/02/17 00:17:14;;;;;;;3.12;2.27;;;;;;;8.60;78.75;98097.52;1621599;87;26652;-78
2022/02/17 00:19:40;;;;;;;4.97;2.65;;;;;;;8.59;78.75;98085.22;1623158;87;25920;-79
2022/02/17 00:22:06;;;;;;;6.65;2.92;;;;;;;8.59;78.82;98077.21;1622483;87;25906;-78
2022/02/17 00:24:32;;;;;;;3.85;2.42;;;;;;;8.57;78.82;98064.11;1619751;87;25932;-78
2022/02/17 00:27:01;;;;;;;3.10;2.15;;;;;;;8.55;78.97;98054.98;1621909;87;27449;-78
2022/02/17 00:29:29;;;;;;;5.33;2.40;;;;;;;8.56;79.05;98061.14;1621720;87;26179;-78
2022/02/17 00:31:56;;;;;;;6.22;2.22;;;;;;;8.54;79.06;98063.23;1621644;87;25768;-78
2022/02/17 00:34:23;;;;;;;4.67;2.27;;;;;;;8.53;79.21;98071.76;1623283;87;26533;-78
2022/02/17 00:36:49;;;;;;;4.85;2.20;;;;;;;8.53;79.35;98084.31;1621437;87;25965;-79
2022/02/17 00:39:16;;;;;;;4.17;2.55;;;;;;;8.54;79.46;98080.06;1601029;88;27496;-77
2022/02/17 00:41:44;;;;;;;2.10;1.90;;;;;;;8.57;79.54;98073.97;1621762;87;26040;-78
2022/02/17 00:44:13;;;;;;;2.95;1.90;;;;;;;8.59;79.60;98069.20;1620291;87;25745;-78
2022/02/17 00:46:39;;;;;;;5.08;3.05;;;;;;;8.60;79.74;98064.96;1625869;87;25829;-79
2022/02/17 00:49:05;;;;;;;4.28;2.40;;;;;;;8.61;80.16;98059.92;1625624;87;25766;-79
2022/02/17 00:51:32;;;;;;;5.28;2.12;;;;;;;8.60;80.50;98052.95;1625625;86;27614;-79
2022/02/17 00:53:59;;;;;;;3.25;2.20;;;;;;;8.56;80.64;98047.80;1625551;86;25843;-78
2022/02/17 00:56:26;;;;;;;4.60;2.60;;;;;;;8.53;81.28;98031.73;1628349;87;25964;-79
2022/02/17 00:58:53;;;;;;;5.28;2.47;;;;;;;8.52;81.48;98010.13;1606508;87;27051;-79
2022/02/17 01:01:25;;;;;;;6.47;3.30;;;;;;;8.47;81.74;97955.32;1628248;87;25989;-79
2022/02/17 01:03:52;;;;;;;4.92;2.55;;;;;;;8.47;81.51;97931.83;1627999;87;26916;-79
2022/02/17 01:06:18;;;;;;;4.90;2.77;;;;;;;8.45;81.36;97926.73;1627885;87;26002;-78
2022/02/17 01:08:46;;;;;;;4.87;2.42;;;;;;;8.44;81.39;97905.13;1625385;87;26610;-79
2022/02/17 01:11:15;;;;;;;3.83;2.17;;;;;;;8.43;81.29;97902.68;1626550;87;26909;-79
2022/02/17 01:13:41;;;;;;;5.47;2.40;;;;;;;8.44;81.24;97882.97;1628018;87;26682;-78
2022/02/17 01:16:07;;;;;;;3.60;2.10;;;;;;;8.44;81.12;97864.30;1626152;87;28284;-78
2022/02/17 01:18:34;;;;;;;4.20;2.22;;;;;;;8.45;81.14;97859.23;1625507;87;25871;-79
2022/02/17 01:21:00;;;;;;;3.33;2.17;;;;;;;8.45;81.01;97861.39;1625471;86;25919;-78
2022/02/17 01:23:28;;;;;;;3.50;2.25;;;;;;;8.45;80.92;97860.05;1628979;87;26647;-79
2022/02/17 01:25:55;;;;;;;3.50;2.35;;;;;;;8.45;80.89;97856.05;1626907;87;26625;-79
2022/02/17 01:28:21;;;;;;;3.20;1.98;;;;;;;8.45;80.78;97856.57;1628162;87;27693;-79
2022/02/17 01:30:49;;;;;;;4.87;2.08;;;;;;;8.44;80.82;97853.11;1629079;86;25894;-79
2022/02/17 01:33:16;;;;;;;2.35;1.80;;;;;;;8.45;80.83;97838.72;1625752;86;25900;-79
2022/02/17 01:35:44;;;;;;;4.80;2.25;;;;;;;8.44;80.82;97837.63;1627760;87;26118;-78
2022/02/17 01:38:10;;;;;;;4.15;2.47;;;;;;;8.44;80.87;97818.95;1606741;87;26229;-78
2022/02/17 01:40:37;;;;;;;3.05;2.40;;;;;;;8.43;80.84;97790.65;1627504;87;28349;-79
2022/02/17 01:43:04;;;;;;;3.58;2.20;;;;;;;8.43;80.87;97763.46;1625361;87;25747;-79
2022/02/17 01:45:31;;;;;;;2.70;2.42;;;;;;;8.43;80.94;97746.13;1626952;87;25860;-79
2022/02/17 01:47:57;;;;;;;3.45;1.90;;;;;;;8.45;81.03;97719.20;1627571;87;26570;-78
2022/02/17 01:50:25;;;;;;;4.92;1.95;;;;;;;8.44;81.16;97730.41;1624392;87;26112;-79
2022/02/17 01:52:51;;;;;;;4.50;2.08;;;;;;;8.46;81.52;97736.83;1626704;87;27411;-78
2022/02/17 01:55:17;;;;;;;3.75;2.42;;;;;;;8.45;82.06;97739.20;1627862;86;25937;-79
2022/02/17 01:57:45;;;;;;;4.47;2.65;;;;;;;8.41;82.70;97750.89;1629155;87;25944;-78
2022/02/17 02:00:14;;;;;;;4.92;2.35;;;;;;;8.38;82.66;97742.58;1626782;87;25891;-78
2022/02/17 02:02:46;;;;;;;2.33;2.12;;;;;;;8.35;83.08;97726.53;1627972;87;25919;-79
2022/02/17 02:05:12;;;;;;;4.42;2.20;;;;;;;8.33;83.49;97723.81;1628248;87;28051;-78
2022/02/17 02:07:41;;;;;;;2.75;2.50;;;;;;;8.29;83.73;97724.02;1627977;87;25856;-79
2022/02/17 02:10:09;;;;;;;4.62;2.42;;;;;;;8.27;83.88;97712.27;1626016;87;25621;-78
2022/02/17 02:12:35;;;;;;;6.42;2.62;;;;;;;8.27;84.35;97687.45;1595181;87;25868;-77
2022/02/17 02:15:05;;;;;;;5.62;2.80;;;;;;;8.23;85.17;97669.74;1627804;87;26067;-78
2022/02/17 02:17:33;;;;;;;5.37;2.47;;;;;;;8.18;85.71;97656.88;1626594;87;27462;-78
2022/02/17 02:20:05;;;;;;;2.85;2.20;;;;;;;8.15;85.89;97656.83;1629206;87;25850;-77
2022/02/17 02:22:33;;;;;;;4.15;2.58;;;;;;;8.12;86.64;97629.85;1626591;87;25533;-79
2022/02/17 02:25:02;;;;;;;3.77;2.47;;;;;;;8.08;86.80;97616.73;1625652;87;25862;-79
2022/02/17 02:27:30;;;;;;;4.83;2.90;;;;;;;8.05;87.16;97595.36;1629648;87;25626;-79
2022/02/17 02:29:58;;;;;;;4.97;3.02;;;;;;;8.04;87.40;97587.62;1628751;87;27475;-78
2022/02/17 02:32:26;;;;;;;3.65;2.55;;;;;;;8.03;87.64;97576.66;1625763;87;26005;-79
2022/02/17 02:34:53;;;;;;;4.37;2.47;;;;;;;8.02;88.42;97548.41;1626820;87;25810;-78
2022/02/17 02:37:20;;;;;;;3.77;2.62;;;;;;;8.02;88.26;97553.73;1628202;87;25893;-78
2022/02/17 02:39:47;;;;;;;3.95;2.92;;;;;;;8.01;88.59;97542.27;1625494;87;25821;-79
2022/02/17 02:42:13;;;;;;;4.45;3.08;;;;;;;8.02;88.87;97542.53;1626675;87;27648;-79
2022/02/17 02:44:40;;;;;;;5.05;2.35;;;;;;;7.99;90.31;97523.05;1628133;87;25898;-78
2022/02/17 02:47:07;;;;;;;3.55;2.58;;;;;;;7.98;90.29;97529.92;1625585;87;26592;-78
2022/02/17 02:49:38;;;;;;;3.83;2.67;;;;;;;7.96;90.17;97524.03;1625926;86;25793;-79
2022/02/17 02:52:06;;;;;;;4.22;3.17;;;;;;;7.95;90.94;97510.45;1625275;87;26502;-78
2022/02/17 02:54:40;;;;;;;6.33;2.85;;;;;;;7.94;91.17;97504.82;1627075;86;27453;-78
2022/02/17 02:57:07;;;;;;;6.72;3.25;;;;;;;7.91;90.95;97503.48;1626729;87;25616;-78
2022/02/17 02:59:34;;;;;;;4.85;2.98;;;;;;;7.91;91.72;97490.16;1628363;87;25661;-79
2022/02/17 03:02:01;;;;;;;3.80;3.00;;;;;;;7.91;91.89;97478.16;1628674;87;25822;-78
2022/02/17 03:04:28;;;;;;;4.20;2.67;;;;;;;7.91;92.27;97465.35;1622412;87;25787;-77
2022/02/17 03:06:56;;;;;;;5.50;3.05;;;;;;;7.92;92.78;97462.95;1626444;87;27998;-79
2022/02/17 03:09:23;;;;;;;4.42;2.90;;;;;;;7.92;93.81;97467.77;1628456;87;26360;-78
2022/02/17 03:11:49;;;;;;;4.87;2.60;;;;;;;7.96;93.83;97464.07;1626086;87;25930;-79
2022/02/17 03:14:16;;;;;;;3.15;2.72;;;;;;;7.98;94.37;97452.64;1606219;87;26694;-78
2022/02/17 03:16:42;;;;;;;3.40;2.50;;;;;;;7.99;94.21;97447.60;1607615;87;25406;-78
2022/02/17 03:19:13;;;;;;;2.92;2.37;;;;;;;8.01;94.48;97450.83;1626245;87;27456;-78
2022/02/17 03:21:38;;;;;;;3.33;2.60;;;;;;;8.03;95.46;97434.05;1625399;87;25873;-78
2022/02/17 03:24:05;;;;;;;3.08;2.45;;;;;;;8.03;95.94;97448.20;1624802;86;26525;-78
2022/02/17 03:26:33;;;;;;;3.83;2.45;;;;;;;8.04;95.85;97447.68;1627256;87;25787;-79
2022/02/17 03:29:00;;;;;;;3.12;2.70;;;;;;;8.04;96.50;97434.34;1627040;87;25626;-78
2022/02/17 03:31:26;;;;;;;4.45;2.50;;;;;;;8.06;96.38;97412.25;1627612;87;28313;-79
2022/02/17 03:33:55;;;;;;;5.42;2.52;;;;;;;8.06;96.36;97429.03;1627863;86;26148;-78
2022/02/17 03:36:23;;;;;;;3.17;2.83;;;;;;;8.09;97.46;97435.73;1626095;87;25880;-78
2022/02/17 03:38:51;;;;;;;2.83;2.60;;;;;;;8.10;97.26;97433.36;1629369;86;26563;-78
2022/02/17 03:41:17;;;;;;;3.70;2.75;;;;;;;8.13;97.60;97410.19;1625884;86;25808;-78
2022/02/17 03:43:43;;;;;;;2.60;2.35;;;;;;;8.15;97.57;97408.08;1627369;87;26916;-78
2022/02/17 03:46:11;;;;;;;3.25;2.50;;;;;;;8.15;98.65;97392.89;1627694;87;25837;-78
2022/02/17 03:48:38;;;;;;;2.58;1.65;;;;;;;8.16;98.23;97383.85;1625320;87;26560;-79
2022/02/17 03:51:06;;;;;;;2.92;2.33;;;;;;;8.17;98.06;97344.12;1626968;87;26608;-78
2022/02/17 03:53:34;;;;;;;3.37;2.08;;;;;;;8.19;98.00;97326.02;1629202;87;25593;-78
2022/02/17 03:56:03;;;;;;;2.85;2.05;;;;;;;8.22;98.34;97335.38;1606814;87;27496;-79
2022/02/17 04:01:15;;;;;;;6.28;2.85;;;;;;;8.26;99.20;97343.19;1608250;87;25882;-78
2022/02/17 04:03:43;;;;;;;2.50;2.12;;;;;;;8.30;99.55;97329.62;1625527;87;26553;-79
2022/02/17 04:06:10;;;;;;;1.98;1.80;;;;;;;8.31;98.94;97300.06;1626544;87;26062;-78
2022/02/17 04:08:36;;;;;;;3.62;2.27;;;;;;;8.33;99.56;97279.28;1628211;87;27525;-78
2022/02/17 04:11:04;;;;;;;4.40;2.27;;;;;;;8.36;99.40;97252.09;1626119;87;25968;-78
2022/02/17 04:13:33;;;;;;;3.83;2.58;;;;;;;8.38;99.59;97266.52;1624696;87;25819;-80
2022/02/17 04:16:02;;;;;;;3.17;2.00;;;;;;;8.41;99.24;97252.66;1625500;87;25904;-80
2022/02/17 04:18:33;;;;;;;2.45;2.15;;;;;;;8.43;99.54;97277.22;1626082;86;25912;-78
2022/02/17 04:21:15;;;;;;;2.27;1.90;;;;;;;8.45;100.00;97269.24;1628287;87;27464;-78
2022/02/17 04:23:46;;;;;;;2.62;2.05;;;;;;;8.47;100.00;97242.30;1627406;87;25692;-79
2022/02/17 04:26:18;;;;;;;3.58;2.25;;;;;;;8.48;99.13;97233.26;1628052;87;25648;-79
2022/02/17 04:28:47;;;;;;;2.37;1.87;;;;;;;8.49;99.59;97208.99;1623481;87;25979;-78
2022/02/17 04:31:16;;;;;;;2.60;2.40;;;;;;;8.50;99.59;97197.80;1626513;87;25644;-78
2022/02/17 04:33:45;;;;;;;2.75;1.77;;;;;;;8.53;99.97;97203.97;1606547;87;27469;-78
2022/02/17 04:36:17;;;;;;;1.90;1.70;;;;;;;8.55;99.77;97212.52;1628022;87;25962;-78
2022/02/17 04:38:43;;;;;;;2.35;1.67;;;;;;;8.59;99.75;97192.80;1626942;87;25876;-79
2022/02/17 04:43:57;;;;;;;4.08;1.85;;;;;;;8.64;99.76;97186.95;1613340;87;25753;-78
2022/02/17 04:46:23;;;;;;;2.92;2.20;;;;;;;8.67;100.00;97200.31;1622794;86;28295;-78
2022/02/17 04:48:50;;;;;;;3.37;2.40;;;;;;;8.68;99.98;97204.59;1617095;87;25839;-78
2022/02/17 04:51:16;;;;;;;3.67;2.22;;;;;;;8.67;99.76;97194.97;1570886;90;25802;-79
2022/02/17 04:53:42;;;;;;;2.95;2.20;;;;;;;8.67;99.26;97177.11;1624046;87;25769;-78
2022/02/17 04:56:09;;;;;;;2.72;1.85;;;;;;;8.68;99.49;97196.07;1621847;87;25873;-78
2022/02/17 04:58:37;;;;;;;2.60;2.00;;;;;;;8.70;99.27;97191.28;1623222;87;27456;-78
2022/02/17 05:01:03;;;;;;;3.55;2.00;;;;;;;8.73;100.00;97228.63;1600691;87;25871;-79
2022/02/17 05:03:31;;;;;;;2.75;2.40;;;;;;;8.76;100.00;97226.27;1619155;87;26282;-78
2022/02/17 05:06:11;;;;;;;2.23;1.50;;;;;;;8.78;100.00;97256.17;1623498;87;26826;-78
2022/02/17 05:08:40;;;;;;;1.57;1.45;;;;;;;8.89;100.00;97283.20;1622802;87;26027;-78
2022/02/17 05:11:07;;;;;;;1.82;1.40;;;;;;;9.03;100.00;97302.23;1622108;87;27472;-79
2022/02/17 10:06:46;;;;;;;9.90;2.60;;;;;;;9.23;76.52;97421.22;1736446;79;25658;-76
2022/02/17 10:09:15;;;;;;;6.20;2.70;;;;;;;9.14;77.42;97420.07;1709168;83;25781;-78
2022/02/17 10:11:44;;;;;;;21.95;10.15;;;;;;;9.15;75.80;97401.67;1709143;81;27629;-78
2022/02/17 10:14:14;;;;;;;4.45;2.30;;;;;;;9.19;76.25;97407.58;1682631;83;25802;-78
2022/02/17 10:17:07;;;;;;;9.15;3.00;;;;;;;9.26;75.32;97399.33;1710446;81;25812;-77
2022/02/17 10:19:41;;;;;;;5.30;1.77;;;;;;;9.34;74.41;97399.66;1710345;81;26075;-77
2022/02/17 10:22:14;;;;;;;5.92;1.85;;;;;;;9.40;71.43;97390.35;1704406;83;25719;-77
2022/02/17 10:24:48;;;;;;;7.10;1.67;;;;;;;9.45;70.98;97394.41;1706810;81;27451;-78
2022/02/17 10:27:28;;;;;;;4.90;2.00;;;;;;;9.51;70.37;97395.52;1711857;81;25840;-77
2022/02/17 10:30:08;;;;;;;6.83;1.60;;;;;;;9.58;69.47;97398.75;1703672;83;26262;-77
2022/02/17 10:32:36;;;;;;;6.73;1.63;;;;;;;9.59;68.28;97387.54;1702318;83;25927;-80
2022/02/17 10:35:11;;;;;;;4.75;2.17;;;;;;;9.54;68.34;97394.98;1701002;83;25975;-79
2022/02/17 10:37:49;;;;;;;7.83;1.50;;;;;;;9.50;69.27;97381.88;1644960;84;28761;-77
2022/02/17 10:40:30;;;;;;;4.20;1.95;;;;;;;9.47;68.90;97376.25;1676236;84;25847;-77
2022/02/17 10:43:01;;;;;;;;;;;;;;;9.45;68.22;97387.73;1651787;86;25849;-78
2022/02/17 10:45:27;;;;;;;5.63;2.17;;;;;;;9.45;69.26;97383.72;1701305;83;25993;-78
2022/02/17 10:47:53;;;;;;;7.75;2.25;;;;;;;9.42;68.83;97390.90;1696142;83;25746;-79
2022/02/17 10:50:20;;;;;;;8.00;1.70;;;;;;;9.42;69.66;97391.71;1700249;83;27408;-78
2022/02/17 10:52:46;;;;;;;5.97;2.35;;;;;;;9.42;69.78;97386.37;1697989;82;26603;-79
2022/02/17 10:55:17;;;;;;;5.47;2.10;;;;;;;9.43;70.26;97380.50;1697943;83;25866;-79
2022/02/17 10:57:45;;;;;;;6.85;2.33;;;;;;;9.45;70.39;97389.06;1698084;83;25740;-79
2022/02/17 11:00:17;;;;;;;9.43;3.02;;;;;;;9.45;70.67;97392.55;1697843;83;25954;-79
2022/02/17 11:02:46;;;;;;;7.42;2.40;;;;;;;9.42;71.05;97397.05;1701029;82;28280;-78
2022/02/17 11:05:13;;;;;;;11.73;4.25;;;;;;;9.38;71.76;97403.16;1699163;83;26582;-78
2022/02/17 11:07:41;;;;;;;4.83;1.90;;;;;;;9.29;72.72;97410.32;1702015;83;25856;-79
2022/02/17 11:10:10;;;;;;;6.80;2.17;;;;;;;9.16;74.19;97416.09;1675842;83;26556;-79
2022/02/17 11:12:38;;;;;;;10.75;3.40;;;;;;;9.08;75.45;97431.77;1694507;83;25833;-78
2022/02/17 11:15:06;;;;;;;11.88;6.12;;;;;;;8.96;76.08;97437.26;1704273;82;27464;-79
2022/02/17 11:17:37;;;;;;;18.60;7.75;;;;;;;8.82;76.85;97433.92;1702163;83;25965;-78
2022/02/17 11:20:17;;;;;;;21.33;9.13;;;;;;;8.70;77.36;97423.94;1697421;83;26058;-78
2022/02/17 11:22:42;;;;;;;12.45;4.80;;;;;;;8.62;77.90;97425.17;1694590;83;26385;-79
2022/02/17 11:25:12;;;;;;;10.28;6.10;;;;;;;8.55;78.04;97423.26;1645360;86;25865;-78
2022/02/17 11:28:06;;;;;;;17.10;12.30;;;;;;;8.54;78.07;97412.30;1698934;83;27632;-78
2022/02/17 11:30:34;;;;;;;14.18;7.62;;;;;;;8.54;78.43;97413.11;1703730;83;25918;-78
2022/02/17 11:33:32;;;;;;;8.80;4.95;;;;;;;8.55;77.69;97404.03;1693703;82;25767;-78
2022/02/17 11:36:24;;;;;;;6.03;2.47;;;;;;;8.61;77.95;97397.42;1705502;83;26031;-78
2022/02/17 11:38:56;;;;;;;13.43;3.12;;;;;;;8.68;76.51;97391.37;1697339;83;25964;-78
2022/02/17 11:41:31;;;;;;;7.58;2.40;;;;;;;8.74;76.27;97394.36;1697444;83;26982;-77
2022/02/17 11:44:18;;;;;;;8.08;2.65;;;;;;;8.80;75.63;97390.14;1700955;83;25965;-78
2022/02/17 11:46:50;;;;;;;10.08;2.50;;;;;;;8.88;75.56;97396.88;1698543;83;25800;-78
2022/02/17 11:49:44;;;;;;;8.40;2.60;;;;;;;8.96;72.56;97389.77;1701575;83;25924;-79
2022/02/17 11:52:22;;;;;;;10.05;3.30;;;;;;;9.00;71.92;97403.66;1704695;83;26537;-78
2022/02/17 11:55:17;;;;;;;12.25;5.10;;;;;;;9.02;70.98;97385.55;1697590;83;27420;-78
2022/02/17 11:57:44;;;;;;;7.97;2.65;;;;;;;9.04;71.07;97403.97;1701686;83;26111;-77
2022/02/17 12:00:34;;;;;;;8.60;3.33;;;;;;;9.05;72.03;97401.56;1699631;83;26534;-77
2022/02/17 12:15:51;;;;;;;5.28;1.87;;;;;;;9.28;72.43;97430.06;1750161;79;25767;-77
2022/02/17 12:18:17;;;;;;;6.25;1.95;;;;;;;9.02;73.47;97422.92;1713162;83;25822;-76
2022/02/17 12:20:43;;;;;;;6.65;3.35;;;;;;;8.91;73.33;97435.08;1688953;83;27556;-77
2022/02/17 12:23:10;;;;;;;14.47;5.12;;;;;;;8.83;73.14;97449.67;1711740;81;26601;-77
2022/02/17 12:25:39;;;;;;;7.17;2.90;;;;;;;8.78;73.57;97460.31;1716694;83;26671;-77
2022/02/17 12:28:10;;;;;;;8.05;3.10;;;;;;;8.71;74.26;97482.38;1713423;82;25352;-77
2022/02/17 12:30:50;;;;;;;8.23;2.58;;;;;;;8.61;75.35;97471.61;1713800;83;25795;-77
2022/02/17 12:33:26;;;;;;;7.22;2.20;;;;;;;8.39;76.17;97485.47;1710013;83;27477;-76
2022/02/17 12:36:00;;;;;;;5.10;2.10;;;;;;;8.21;77.04;97489.76;1706606;83;25851;-76
2022/02/17 12:38:32;;;;;;;5.58;2.35;;;;;;;8.10;77.05;97478.16;1707881;83;25845;-77
2022/02/17 12:41:01;;;;;;;8.38;2.25;;;;;;;8.07;77.67;97493.30;1715196;82;25999;-77
2022/02/17 12:43:32;;;;;;;8.75;3.00;;;;;;;8.06;77.93;97480.22;1690336;83;25825;-77
2022/02/17 12:46:02;;;;;;;10.10;2.67;;;;;;;8.08;78.23;97495.44;1713981;81;27529;-78
2022/02/17 12:48:32;;;;;;;5.70;1.98;;;;;;;8.09;77.60;97519.18;1708674;82;25836;-77
2022/02/17 12:50:58;;;;;;;4.83;1.90;;;;;;;8.12;77.23;97516.55;1714971;83;26606;-76
2022/02/17 12:53:27;;;;;;;7.03;1.62;;;;;;;8.10;76.52;97506.14;1715417;83;26428;-76
2022/02/17 12:55:55;;;;;;;4.80;1.70;;;;;;;8.10;77.07;97509.33;1714127;81;26074;-77
2022/02/17 12:58:37;;;;;;;5.55;1.50;;;;;;;8.11;77.52;97505.59;1717808;83;28324;-77
2022/02/17 13:01:04;;;;;;;9.65;5.35;;;;;;;8.09;76.70;97524.51;1709812;80;25954;-76
2022/02/17 13:03:42;;;;;;;5.03;2.20;;;;;;;8.06;76.60;97512.99;1713484;82;25735;-77
2022/02/17 13:06:18;;;;;;;5.87;2.05;;;;;;;8.07;76.46;97512.47;1716040;82;25960;-77
2022/02/17 13:08:51;;;;;;;3.83;2.05;;;;;;;8.08;77.22;97520.77;1715210;81;25793;-77
2022/02/17 13:11:22;;;;;;;5.30;1.90;;;;;;;8.07;76.57;97523.13;1657741;84;27438;-77
2022/02/17 13:13:48;;;;;;;7.43;2.03;;;;;;;8.06;76.68;97522.32;1664248;84;26439;-77
2022/02/17 13:16:18;;;;;;;6.35;2.08;;;;;;;8.06;76.93;97514.33;1655827;86;26027;-76
2022/02/17 13:18:44;;;;;;;8.30;2.72;;;;;;;8.06;77.32;97524.98;1677010;85;26401;-77
2022/02/17 13:21:17;;;;;;;7.55;2.62;;;;;;;8.04;77.41;97523.09;1681327;85;26288;-77
2022/02/17 13:23:47;;;;;;;11.60;5.10;;;;;;;8.01;77.91;97528.12;1662993;85;28303;-76
2022/02/17 13:26:32;;;;;;;10.40;2.83;;;;;;;7.94;78.18;97544.28;1640187;85;25973;-77
2022/02/17 13:29:01;;;;;;;5.80;2.22;;;;;;;7.90;78.70;97561.00;1679647;85;25876;-76
2022/02/17 13:31:37;;;;;;;4.37;1.75;;;;;;;7.87;79.05;97565.50;1656796;86;26451;-77
2022/02/17 13:34:23;;;;;;;8.78;2.02;;;;;;;7.84;79.35;97565.45;1662891;84;26620;-77
2022/02/17 13:36:47;;;;;;;4.22;2.00;;;;;;;7.82;80.49;97572.06;1657438;83;27692;-77
2022/02/17 13:39:20;;;;;;;6.30;1.95;;;;;;;7.74;81.44;97582.06;1680698;85;26709;-77
2022/02/17 13:42:08;;;;;;;7.00;2.17;;;;;;;7.64;81.65;97580.58;1663862;86;25746;-80
2022/02/17 13:44:42;;;;;;;8.45;3.20;;;;;;;7.56;82.28;97582.31;1661902;84;25769;-80
2022/02/17 13:47:13;;;;;;;6.87;2.40;;;;;;;7.52;82.88;97585.69;1651995;86;26625;-78
2022/02/17 13:49:42;;;;;;;5.67;2.27;;;;;;;7.46;83.63;97600.76;1675747;85;27432;-77
2022/02/17 13:52:19;;;;;;;8.03;2.33;;;;;;;7.40;84.35;97596.40;1677910;84;25893;-77
2022/02/17 13:54:55;;;;;;;5.33;2.67;;;;;;;7.35;84.54;97594.18;1662013;85;25353;-78
2022/02/17 13:57:27;;;;;;;7.40;2.55;;;;;;;7.27;85.98;97594.02;1660614;85;26644;-77
2022/02/17 14:00:07;;;;;;;10.70;3.15;;;;;;;7.23;86.04;97593.44;1655172;86;25858;-77
2022/02/17 14:02:35;;;;;;;10.45;2.35;;;;;;;7.20;87.11;97589.91;1633230;86;27444;-77
2022/02/17 14:05:07;;;;;;;9.50;2.42;;;;;;;7.17;87.16;97597.84;1642559;85;26471;-78
2022/02/17 14:07:38;;;;;;;7.65;2.52;;;;;;;7.17;87.06;97607.16;1667946;85;25908;-77
2022/02/17 14:10:08;;;;;;;9.75;2.45;;;;;;;7.17;87.21;97609.00;1667767;85;26700;-77
2022/02/17 14:12:35;;;;;;;8.93;3.22;;;;;;;7.17;87.72;97612.99;1667337;85;25903;-77
2022/02/17 14:15:03;;;;;;;9.43;3.83;;;;;;;7.17;87.46;97611.66;1668079;85;27460;-77
2022/02/17 14:17:33;;;;;;;11.60;4.97;;;;;;;7.18;87.60;97622.61;1667989;85;25804;-78
2022/02/17 14:20:00;;;;;;;15.43;5.83;;;;;;;7.18;87.57;97619.44;1667657;85;25908;-78
2022/02/17 14:22:26;;;;;;;9.78;3.87;;;;;;;7.19;87.68;97626.36;1664560;85;26435;-77
2022/02/17 14:24:53;;;;;;;8.20;3.12;;;;;;;7.22;87.55;97629.89;1665946;84;26519;-78
2022/02/17 14:27:20;;;;;;;11.68;3.00;;;;;;;7.24;87.35;97649.09;1668366;84;28288;-78
2022/02/17 14:29:47;;;;;;;10.60;3.27;;;;;;;7.26;87.22;97657.65;1668577;84;25817;-78
2022/02/17 14:32:13;;;;;;;13.88;4.80;;;;;;;7.30;87.50;97649.98;1667229;85;25904;-78
2022/02/17 14:35:09;;;;;;;10.15;3.40;;;;;;;7.31;86.94;97655.09;1662107;79;25922;-77
2022/02/17 14:37:08;;;;;;;9.05;4.00;;;;;;;7.34;87.04;97655.94;1651667;84;26224;-78
2022/02/17 14:39:34;;;;;;;8.03;4.05;;;;;;;7.35;86.98;97665.55;1657972;84;27443;-78
2022/02/17 14:42:00;;;;;;;9.13;3.50;;;;;;;7.36;87.12;97675.66;1654741;84;25793;-77
2022/02/17 14:44:27;;;;;;;11.73;4.35;;;;;;;7.34;87.16;97687.89;1652056;84;26582;-77
2022/02/17 14:46:53;;;;;;;11.38;3.08;;;;;;;7.33;87.16;97694.27;1651604;85;25910;-77
2022/02/17 14:49:19;;;;;;;6.70;3.42;;;;;;;7.31;87.69;97685.72;1649932;85;25796;-77
2022/02/17 14:51:46;;;;;;;9.08;3.83;;;;;;;7.29;87.66;97699.75;1649359;85;28249;-78
2022/02/17 14:54:12;;;;;;;8.80;2.90;;;;;;;7.26;87.71;97702.09;1651515;85;25863;-77
2022/02/17 14:56:39;;;;;;;8.60;4.75;;;;;;;7.24;88.00;97714.31;1653108;84;25856;-77
2022/02/17 14:59:07;;;;;;;8.93;4.40;;;;;;;7.20;88.60;97710.51;1658883;84;25858;-78
2022/02/17 15:01:33;;;;;;;5.12;3.05;;;;;;;7.18;88.62;97707.27;1657622;84;25902;-78
2022/02/17 15:04:00;;;;;;;8.13;2.83;;;;;;;7.18;88.85;97703.80;1650682;85;27453;-77
2022/02/17 15:06:26;;;;;;;6.58;3.15;;;;;;;7.18;88.67;97722.43;1651265;85;25984;-77
2022/02/17 15:08:53;;;;;;;7.83;2.52;;;;;;;7.18;88.70;97717.92;1652797;84;25968;-77
2022/02/17 15:11:19;;;;;;;5.28;2.33;;;;;;;7.17;88.67;97727.45;1649433;84;26343;-77
2022/02/17 15:13:45;;;;;;;5.47;3.47;;;;;;;7.16;88.75;97738.64;1656515;85;26360;-77
2022/02/17 15:16:11;;;;;;;6.05;2.67;;;;;;;7.16;88.92;97748.48;1638377;85;28529;-77
2022/02/17 15:18:37;;;;;;;6.65;2.42;;;;;;;7.13;89.00;97758.25;1631169;86;25699;-77
2022/02/17 15:21:04;;;;;;;5.42;1.75;;;;;;;7.10;89.16;97779.48;1658270;85;26303;-77
2022/02/17 15:23:30;;;;;;;7.10;1.92;;;;;;;7.09;89.33;97791.19;1655906;85;25791;-76
2022/02/17 15:25:56;;;;;;;4.75;1.67;;;;;;;7.04;89.66;97804.37;1651994;83;25871;-77
2022/02/17 15:28:22;;;;;;;4.55;1.57;;;;;;;7.00;89.94;97820.00;1658006;85;28375;-77
2022/02/17 15:30:49;;;;;;;3.50;0.93;;;;;;;6.92;90.15;97836.32;1621805;86;26033;-78
2022/02/17 15:33:15;;;;;;;2.90;1.70;;;;;;;6.82;89.89;97820.64;1659812;85;26266;-77
2022/02/17 15:35:41;;;;;;;3.58;1.27;;;;;;;6.77;90.32;97835.14;1625448;85;25926;-77
2022/02/17 15:38:07;;;;;;;4.95;1.92;;;;;;;6.79;90.26;97862.32;1674324;83;25767;-77
2022/02/17 15:40:33;;;;;;;2.42;1.42;;;;;;;6.82;90.14;97860.00;1645257;85;27618;-77
2022/02/17 15:43:01;;;;;;;3.70;1.30;;;;;;;6.86;90.08;97871.80;1631495;87;26558;-77
2022/02/17 15:45:27;;;;;;;2.95;1.37;;;;;;;6.88;89.97;97885.72;1658821;85;25829;-77
2022/02/17 15:47:53;;;;;;;3.75;1.60;;;;;;;6.88;89.45;97899.53;1661927;85;25950;-77
2022/02/17 15:50:21;;;;;;;4.40;1.10;;;;;;;6.86;89.42;97910.92;1663108;85;25848;-77
2022/02/17 15:52:48;;;;;;;2.70;1.05;;;;;;;6.80;88.29;97906.52;1666115;85;27503;-77
2022/02/17 15:55:15;;;;;;;2.77;1.82;;;;;;;6.73;87.65;97927.91;1661414;83;25774;-77
2022/02/17 15:57:41;;;;;;;1.98;1.30;;;;;;;6.70;86.99;97935.50;1667282;85;25905;-77
2022/02/17 16:00:10;;;;;;;5.70;4.92;;;;;;;6.65;86.93;97952.14;1664015;85;26446;-78
2022/02/17 16:02:39;;;;;;;2.17;1.32;;;;;;;6.61;87.03;97948.31;1628823;86;26029;-77
2022/02/17 16:05:07;;;;;;;3.35;2.08;;;;;;;6.58;86.63;97962.08;1670577;83;27463;-78
2022/02/17 16:07:34;;;;;;;3.90;2.62;;;;;;;6.56;86.37;97972.64;1664350;85;26486;-77
2022/02/17 16:10:01;;;;;;;2.27;1.15;;;;;;;6.54;86.32;97964.08;1667996;85;25808;-77
2022/02/17 16:12:27;;;;;;;3.42;2.00;;;;;;;6.50;84.80;97970.89;1662700;85;25870;-77
2022/02/17 16:14:53;;;;;;;2.27;1.15;;;;;;;6.48;85.12;98006.20;1660572;85;25331;-77
2022/02/17 16:17:19;;;;;;;2.52;0.70;;;;;;;6.49;84.61;98014.45;1662150;85;28235;-77
2022/02/17 16:19:45;;;;;;;2.80;2.40;;;;;;;6.48;83.95;98008.31;1655867;83;26628;-77
2022/02/17 16:22:12;;;;;;;5.22;1.22;;;;;;;6.48;83.21;98006.98;1659099;85;25882;-77
2022/02/17 16:24:39;;;;;;;1.57;0.90;;;;;;;6.47;82.83;98028.48;1661942;85;26216;-77
2022/02/17 16:27:06;;;;;;;3.25;1.00;;;;;;;6.45;80.40;98019.41;1663761;85;26781;-78
2022/02/17 16:29:32;;;;;;;2.83;1.00;;;;;;;6.45;80.45;98040.69;1659141;85;28275;-77
2022/02/17 16:31:59;;;;;;;4.90;1.60;;;;;;;6.43;79.51;98047.26;1662093;83;26570;-77
2022/02/17 16:34:25;;;;;;;2.83;1.70;;;;;;;6.42;78.42;98057.58;1660629;80;26282;-76
2022/02/17 16:36:51;;;;;;;3.77;1.60;;;;;;;6.41;79.03;98077.25;1669053;84;26703;-78
2022/02/17 16:39:20;;;;;;;3.17;1.07;;;;;;;6.38;79.12;98081.66;1666063;85;25816;-76
2022/02/17 16:41:49;;;;;;;3.47;2.27;;;;;;;6.40;78.92;98088.39;1666479;85;27460;-78
2022/02/17 16:44:16;;;;;;;2.02;1.20;;;;;;;6.42;78.36;98076.20;1668362;85;25971;-77
2022/02/17 16:46:44;;;;;;;3.02;1.20;;;;;;;6.42;77.94;98102.78;1663997;85;25800;-77
2022/02/17 16:49:11;;;;;;;3.37;1.35;;;;;;;6.43;77.96;98108.41;1663019;85;25852;-77
2022/02/17 16:51:38;;;;;;;3.75;1.00;;;;;;;6.44;78.38;98115.34;1664619;85;25894;-78
2022/02/17 16:54:05;;;;;;;5.97;1.37;;;;;;;6.42;76.20;98126.72;1661214;85;28321;-77
2022/02/17 16:56:32;;;;;;;4.85;1.17;;;;;;;6.41;76.27;98139.73;1658814;84;25879;-78
2022/02/17 16:58:59;;;;;;;3.83;1.57;;;;;;;6.39;75.72;98148.44;1663388;83;25844;-77
2022/02/17 17:01:27;;;;;;;2.85;1.10;;;;;;;6.38;75.13;98154.78;1623993;87;25831;-77